Time;durP1;ratioP1;P1;durP2;ratioP2;P2;SDS_P1;SDS_P2;PMS_P1;PMS_P2;Temp;Humidity;BMP_temperature;BMP_pressure;BME280_temperature;BME280_humidity;BME280_pressure;Samples;Min_cycle;Max_cycle;Signal;HPM_P1;HPM_P2
2023/09/19 00:00:22;;;;;;;9.00;7.40;;;;;;;11.62;100.00;101758.66;105592;1260;59986;-51
2023/09/19 00:02:59;;;;;;;8.90;7.50;;;;;;;11.58;100.00;101756.77;105619;1257;71797;-49
2023/09/19 00:05:27;;;;;;;11.10;7.80;;;;;;;11.52;100.00;101756.97;105631;1260;63205;-50
2023/09/19 00:07:58;;;;;;;11.50;8.70;;;;;;;11.44;100.00;101760.94;105641;1261;71377;-49
2023/09/19 00:10:30;;;;;;;12.50;8.20;;;;;;;11.42;100.00;101754.89;105650;1257;59842;-50
2023/09/19 00:12:59;;;;;;;15.70;8.60;;;;;;;11.38;100.00;101752.66;105629;1259;59580;-49
2023/09/19 00:15:30;;;;;;;11.80;8.10;;;;;;;11.34;100.00;101750.58;105603;1260;72136;-51
2023/09/19 00:17:57;;;;;;;11.10;8.10;;;;;;;11.31;100.00;101753.88;105624;1258;64437;-49
2023/09/19 00:20:25;;;;;;;9.60;8.60;;;;;;;11.28;100.00;101745.40;105614;1260;72622;-49
2023/09/19 00:22:53;;;;;;;14.60;9.90;;;;;;;11.24;100.00;101750.42;105665;1256;59668;-49
2023/09/19 00:25:21;;;;;;;12.50;8.50;;;;;;;11.18;100.00;101754.05;105633;1260;59553;-50
2023/09/19 00:27:51;;;;;;;9.40;7.80;;;;;;;11.14;100.00;101748.70;105567;1256;71759;-48
2023/09/19 00:30:24;;;;;;;8.90;7.40;;;;;;;11.11;100.00;101748.52;105621;1256;63126;-50
2023/09/19 00:32:52;;;;;;;11.20;8.50;;;;;;;11.10;100.00;101748.69;105682;1257;71834;-50
2023/09/19 00:35:24;;;;;;;15.20;9.50;;;;;;;11.06;100.00;101745.23;105651;1257;60011;-51
2023/09/19 00:37:52;;;;;;;11.30;8.80;;;;;;;11.04;100.00;101741.43;105592;1258;60014;-51
2023/09/19 00:40:21;;;;;;;11.70;9.50;;;;;;;11.02;100.00;101737.11;105572;1257;71805;-51
2023/09/19 00:42:49;;;;;;;12.80;8.90;;;;;;;10.99;100.00;101738.33;105559;1258;62138;-53
2023/09/19 00:45:17;;;;;;;11.00;8.60;;;;;;;10.96;100.00;101735.55;105620;1260;71388;-51
2023/09/19 00:47:48;;;;;;;13.00;10.20;;;;;;;10.95;100.00;101732.11;105659;1257;60004;-53
2023/09/19 00:50:22;;;;;;;13.80;8.90;;;;;;;10.94;100.00;101724.16;105627;1256;59726;-56
2023/09/19 00:52:50;;;;;;;10.10;8.60;;;;;;;10.93;100.00;101718.30;105556;1263;73028;-48
2023/09/19 00:55:21;;;;;;;13.10;8.70;;;;;;;10.88;100.00;101718.45;105548;1257;64314;-50
2023/09/19 00:57:52;;;;;;;17.40;9.70;;;;;;;10.86;100.00;101713.27;105585;1260;71382;-50
2023/09/19 01:00:20;;;;;;;15.20;8.00;;;;;;;10.85;100.00;101712.23;105577;1262;60528;-51
2023/09/19 01:02:48;;;;;;;18.40;8.70;;;;;;;10.87;100.00;101711.56;105645;1256;59628;-50
2023/09/19 01:05:17;;;;;;;12.50;8.60;;;;;;;10.87;100.00;101708.98;105534;1257;72270;-51
2023/09/19 01:07:45;;;;;;;11.10;8.40;;;;;;;10.86;100.00;101705.84;105635;1261;63034;-49
2023/09/19 01:10:21;;;;;;;12.40;9.30;;;;;;;10.82;100.00;101708.27;105590;1260;71709;-50
2023/09/19 01:13:13;;;;;;;12.60;8.60;;;;;;;10.76;100.00;101710.01;105497;1257;61649;-49
2023/09/19 01:15:59;;;;;;;10.20;8.20;;;;;;;10.73;100.00;101719.65;105640;1257;59936;-49
2023/09/19 01:18:38;;;;;;;13.20;8.60;;;;;;;10.73;100.00;101716.54;105650;1257;73071;-50
2023/09/19 01:21:09;;;;;;;9.80;8.10;;;;;;;10.73;100.00;101712.76;105623;1260;63125;-48
2023/09/19 01:24:07;;;;;;;12.40;9.10;;;;;;;10.69;100.00;101709.11;105572;1263;72598;-49
2023/09/19 01:27:14;;;;;;;13.50;9.50;;;;;;;10.70;100.00;101697.72;105538;1261;59994;-50
2023/09/19 01:29:49;;;;;;;15.70;7.80;;;;;;;10.69;100.00;101690.82;105570;1259;59850;-49
2023/09/19 01:32:22;;;;;;;12.30;7.10;;;;;;;10.70;100.00;101688.23;105559;1260;72199;-49
2023/09/19 01:35:03;;;;;;;18.60;8.50;;;;;;;10.74;100.00;101689.11;105627;1257;63495;-51
2023/09/19 01:37:31;;;;;;;15.70;9.40;;;;;;;10.77;100.00;101696.36;105626;1260;71533;-51
2023/09/19 01:40:08;;;;;;;21.50;8.60;;;;;;;10.76;100.00;101701.20;105589;1258;60554;-50
2023/09/19 01:42:57;;;;;;;19.60;7.30;;;;;;;10.77;100.00;101703.60;105585;1262;59705;-51
2023/09/19 01:46:04;;;;;;;11.30;7.80;;;;;;;10.78;100.00;101705.68;105600;1260;71849;-51
2023/09/19 01:48:47;;;;;;;9.90;8.90;;;;;;;10.76;100.00;101712.76;105460;1257;64464;-51
2023/09/19 01:51:21;;;;;;;14.60;7.70;;;;;;;10.69;100.00;101718.45;105579;1257;71358;-51
2023/09/19 01:54:06;;;;;;;14.50;8.00;;;;;;;10.63;100.00;101726.21;105610;1258;61632;-50
2023/09/19 01:57:03;;;;;;;10.20;7.60;;;;;;;10.57;100.00;101736.21;105622;1256;59945;-50
2023/09/19 01:59:54;;;;;;;9.90;8.30;;;;;;;10.51;100.00;101742.60;105639;1256;71747;-50
2023/09/19 02:02:24;;;;;;;10.50;7.70;;;;;;;10.44;100.00;101752.39;105622;1263;64391;-49
2023/09/19 02:04:53;;;;;;;12.90;7.40;;;;;;;10.39;100.00;101754.60;105291;1258;71484;-50
2023/09/19 02:07:22;;;;;;;16.40;8.70;;;;;;;10.33;100.00;101753.71;105554;1258;59737;-48
2023/09/19 02:09:50;;;;;;;11.20;8.00;;;;;;;10.31;100.00;101753.19;105324;1258;60107;-49
2023/09/19 02:12:18;;;;;;;10.80;7.50;;;;;;;10.27;100.00;101757.31;105587;1258;71771;-49
2023/09/19 02:14:46;;;;;;;13.60;7.10;;;;;;;10.22;100.00;101759.37;105515;1257;63060;-49
2023/09/19 02:17:14;;;;;;;16.30;8.10;;;;;;;10.18;100.00;101761.24;105626;1258;72674;-50
2023/09/19 02:19:41;;;;;;;14.30;8.40;;;;;;;10.15;100.00;101760.20;105571;1257;60207;-50
2023/09/19 02:22:10;;;;;;;13.00;7.30;;;;;;;10.12;100.00;101758.48;105591;1260;59973;-50
2023/09/19 02:24:38;;;;;;;9.50;7.80;;;;;;;10.10;100.00;101757.77;105574;1257;72008;-50
2023/09/19 02:27:07;;;;;;;10.00;7.80;;;;;;;10.08;100.00;101760.00;105630;1256;62408;-50
2023/09/19 02:29:35;;;;;;;12.30;8.90;;;;;;;10.03;100.00;101760.67;105575;1260;72652;-49
2023/09/19 02:32:03;;;;;;;12.60;8.00;;;;;;;9.98;100.00;101767.38;105502;1263;60406;-51
2023/09/19 02:34:32;;;;;;;12.30;6.80;;;;;;;9.94;100.00;101766.84;105610;1257;60062;-50
2023/09/19 02:37:00;;;;;;;14.20;8.90;;;;;;;9.89;100.00;101766.98;105613;1263;72955;-50
2023/09/19 02:39:28;;;;;;;14.90;9.30;;;;;;;9.87;100.00;101768.86;105574;1256;63140;-50
2023/09/19 02:41:56;;;;;;;14.30;9.40;;;;;;;9.82;100.00;101767.46;105614;1257;70434;-49
2023/09/19 02:44:24;;;;;;;8.90;8.00;;;;;;;9.76;100.00;101765.88;105557;1257;60676;-50
2023/09/19 02:46:52;;;;;;;10.80;8.40;;;;;;;9.71;100.00;101765.66;105576;1257;59978;-51
2023/09/19 02:49:19;;;;;;;13.30;8.20;;;;;;;9.66;100.00;101768.74;105545;1260;72077;-50
2023/09/19 02:51:47;;;;;;;13.70;8.70;;;;;;;9.64;100.00;101765.63;105519;1257;65260;-49
2023/09/19 02:54:19;;;;;;;13.60;9.50;;;;;;;9.64;100.00;101764.77;105511;1260;72623;-50
2023/09/19 02:56:47;;;;;;;16.00;8.30;;;;;;;9.63;100.00;101759.60;105580;1260;60390;-51
2023/09/19 02:59:15;;;;;;;10.20;7.80;;;;;;;9.60;100.00;101751.64;105560;1258;60023;-50
2023/09/19 03:01:46;;;;;;;14.30;7.60;;;;;;;9.60;100.00;101748.72;105509;1262;73011;-51
2023/09/19 03:04:19;;;;;;;18.40;8.80;;;;;;;9.64;100.00;101749.95;105546;1262;64339;-51
2023/09/19 03:06:48;;;;;;;17.90;9.30;;;;;;;9.69;100.00;101741.17;105549;1257;71433;-50
2023/09/19 03:09:16;;;;;;;15.30;8.50;;;;;;;9.73;100.00;101740.17;105572;1258;60430;-50
2023/09/19 03:11:46;;;;;;;14.20;7.90;;;;;;;9.76;100.00;101736.57;105583;1257;59771;-54
2023/09/19 03:14:15;;;;;;;13.70;8.00;;;;;;;9.76;100.00;101736.57;105644;1257;73010;-51
2023/09/19 03:16:44;;;;;;;16.10;8.60;;;;;;;9.76;100.00;101739.68;105600;1262;64456;-55
2023/09/19 03:19:15;;;;;;;17.80;8.40;;;;;;;9.77;100.00;101743.98;105585;1257;71723;-55
2023/09/19 03:21:43;;;;;;;16.90;8.50;;;;;;;9.75;100.00;101747.09;105604;1256;59621;-49
2023/09/19 03:24:11;;;;;;;12.60;8.30;;;;;;;9.76;100.00;101751.91;105614;1260;60095;-49
2023/09/19 03:26:39;;;;;;;19.20;9.20;;;;;;;9.77;100.00;101753.64;105567;1260;72076;-51
2023/09/19 03:29:07;;;;;;;15.10;8.70;;;;;;;9.81;100.00;101756.60;105511;1263;64406;-50
2023/09/19 03:31:36;;;;;;;21.80;9.60;;;;;;;9.80;100.00;101760.89;105592;1257;72646;-51
2023/09/19 03:34:07;;;;;;;12.40;8.90;;;;;;;9.78;100.00;101764.33;105590;1256;61733;-51
2023/09/19 03:36:35;;;;;;;12.80;8.80;;;;;;;9.76;100.00;101767.61;105646;1256;59538;-51
2023/09/19 03:39:06;;;;;;;15.30;9.30;;;;;;;9.75;100.00;101771.05;105537;1263;73449;-50
2023/09/19 03:41:36;;;;;;;14.20;9.00;;;;;;;9.74;100.00;101776.55;105585;1258;63233;-50
2023/09/19 03:44:04;;;;;;;12.30;9.00;;;;;;;9.71;100.00;101778.94;105590;1257;72645;-50
2023/09/19 03:46:32;;;;;;;19.70;8.20;;;;;;;9.69;100.00;101777.90;105586;1257;61654;-51
2023/09/19 03:49:00;;;;;;;12.40;8.40;;;;;;;9.69;100.00;101779.44;105578;1256;60609;-50
2023/09/19 03:51:28;;;;;;;12.30;8.10;;;;;;;9.68;100.00;101778.75;105525;1257;72663;-50
2023/09/19 03:53:56;;;;;;;14.60;9.30;;;;;;;9.68;100.00;101777.37;105657;1258;63229;-49
2023/09/19 03:56:24;;;;;;;13.90;9.50;;;;;;;9.68;100.00;101779.79;105578;1260;71405;-50
2023/09/19 03:58:52;;;;;;;16.10;9.00;;;;;;;9.72;100.00;101774.46;105531;1263;60530;-51
2023/09/19 04:01:20;;;;;;;11.70;8.50;;;;;;;9.77;100.00;101769.50;105560;1260;60424;-51
2023/09/19 04:03:48;;;;;;;15.00;8.50;;;;;;;9.85;100.00;101767.98;105554;1257;72542;-51
2023/09/19 04:06:16;;;;;;;15.30;9.40;;;;;;;9.92;100.00;101761.48;105596;1260;64366;-50
2023/09/19 04:08:44;;;;;;;15.70;9.70;;;;;;;10.05;100.00;101758.78;105655;1257;71668;-51
2023/09/19 04:11:12;;;;;;;14.20;9.40;;;;;;;10.20;100.00;101750.40;105568;1257;60479;-50
2023/09/19 04:13:39;;;;;;;18.30;9.10;;;;;;;10.39;100.00;101743.91;105543;1260;60476;-50
2023/09/19 04:16:10;;;;;;;14.10;8.90;;;;;;;10.62;100.00;101733.45;105627;1260;73062;-51
2023/09/19 04:18:39;;;;;;;25.50;9.80;;;;;;;10.84;100.00;101726.06;105579;1257;64447;-50
2023/09/19 04:21:08;;;;;;;14.10;9.70;;;;;;;11.06;100.00;101719.67;105561;1257;70981;-50
2023/09/19 04:23:36;;;;;;;24.40;8.70;;;;;;;11.27;100.00;101717.24;105569;1262;60530;-51
2023/09/19 04:26:06;;;;;;;16.40;8.50;;;;;;;11.51;100.00;101717.73;105571;1257;60379;-52
2023/09/19 04:28:38;;;;;;;10.30;8.30;;;;;;;11.74;100.00;101722.15;105617;1257;72617;-50
2023/09/19 04:31:08;;;;;;;13.70;8.70;;;;;;;11.97;100.00;101729.70;105649;1256;63553;-49
2023/09/19 04:33:35;;;;;;;19.90;9.80;;;;;;;12.18;100.00;101740.70;105603;1260;71349;-50
2023/09/19 04:36:07;;;;;;;15.50;8.10;;;;;;;12.35;100.00;101753.42;105643;1257;60533;-51
2023/09/19 04:38:54;;;;;;;17.10;9.60;;;;;;;12.50;100.00;101778.45;105624;1260;60385;-50
2023/09/19 04:41:23;;;;;;;11.40;8.90;;;;;;;12.59;100.00;101795.55;105573;1260;73759;-50
2023/09/19 04:43:51;;;;;;;19.30;7.20;;;;;;;12.67;100.00;101819.05;105621;1257;62177;-50
2023/09/19 04:46:20;;;;;;;10.40;8.00;;;;;;;12.73;100.00;101844.30;105566;1258;73916;-50
2023/09/19 04:48:48;;;;;;;16.70;8.00;;;;;;;12.78;100.00;101867.67;105607;1260;60513;-50
2023/09/19 04:51:16;;;;;;;11.80;8.60;;;;;;;12.83;100.00;101888.25;105542;1260;60409;-51
2023/09/19 04:53:43;;;;;;;20.40;8.00;;;;;;;12.87;100.00;101902.78;105584;1257;72574;-50
2023/09/19 04:56:11;;;;;;;20.30;7.70;;;;;;;12.91;100.00;101923.55;105600;1260;62758;-51
2023/09/19 04:58:39;;;;;;;12.20;7.90;;;;;;;12.94;100.00;101940.35;105599;1257;71411;-51
2023/09/19 05:01:11;;;;;;;13.30;7.90;;;;;;;12.96;100.00;101947.27;105628;1260;60524;-51
2023/09/19 05:03:39;;;;;;;12.00;7.80;;;;;;;12.98;100.00;101952.45;105640;1257;62212;-51
2023/09/19 05:06:07;;;;;;;16.90;7.90;;;;;;;13.02;100.00;101953.65;105545;1257;73233;-49
2023/09/19 05:08:35;;;;;;;17.30;7.10;;;;;;;13.05;100.00;101948.26;105604;1257;63123;-50
2023/09/19 05:11:02;;;;;;;19.10;7.80;;;;;;;13.10;100.00;101939.39;105614;1260;72646;-51
2023/09/19 05:13:30;;;;;;;14.60;8.30;;;;;;;13.14;100.00;101924.99;105575;1257;60479;-50
2023/09/19 05:16:02;;;;;;;14.60;8.00;;;;;;;13.19;100.00;101914.04;105662;1257;60415;-50
2023/09/19 05:18:31;;;;;;;9.70;8.00;;;;;;;13.25;100.00;101892.52;105593;1257;72611;-50
2023/09/19 05:21:02;;;;;;;9.20;7.00;;;;;;;13.31;100.00;101875.82;105605;1260;63115;-49
2023/09/19 05:23:29;;;;;;;10.90;7.30;;;;;;;13.38;100.00;101858.95;105645;1257;71576;-50
2023/09/19 05:25:59;;;;;;;17.10;7.80;;;;;;;13.44;100.00;101838.99;105527;1257;60625;-51
2023/09/19 05:28:27;;;;;;;12.80;7.60;;;;;;;13.52;100.00;101816.05;105703;1260;60901;-50
2023/09/19 05:30:55;;;;;;;15.60;7.70;;;;;;;13.60;100.00;101794.13;105612;1257;72391;-50
2023/09/19 05:33:23;;;;;;;14.30;7.50;;;;;;;13.69;100.00;101771.32;105609;1258;63142;-50
2023/09/19 05:35:51;;;;;;;9.70;6.50;;;;;;;13.77;100.00;101744.34;105590;1258;71407;-51
2023/09/19 05:38:20;;;;;;;10.60;6.80;;;;;;;13.86;100.00;101718.39;105578;1260;60549;-52
2023/09/19 05:40:47;;;;;;;11.30;7.60;;;;;;;13.96;100.00;101700.91;105672;1257;60513;-51
2023/09/19 05:43:15;;;;;;;10.00;7.20;;;;;;;14.04;100.00;101676.69;105586;1257;73228;-52
2023/09/19 05:45:45;;;;;;;9.60;7.20;;;;;;;14.13;100.00;101645.14;105586;1256;63260;-52
2023/09/19 05:48:15;;;;;;;15.60;7.20;;;;;;;14.23;100.00;101621.20;105600;1260;71387;-51
2023/09/19 05:50:43;;;;;;;16.30;6.50;;;;;;;14.34;100.00;101595.87;105611;1256;61659;-51
2023/09/19 05:53:12;;;;;;;9.00;6.10;;;;;;;14.45;100.00;101557.31;105650;1256;60437;-49
2023/09/19 05:55:41;;;;;;;12.40;7.00;;;;;;;14.57;100.00;101490.25;105588;1257;72558;-50
2023/09/19 05:58:09;;;;;;;10.60;6.80;;;;;;;14.68;100.00;101424.38;105646;1258;63316;-50
2023/09/19 06:00:37;;;;;;;14.30;6.90;;;;;;;14.76;100.00;101367.44;105630;1260;71572;-51
2023/09/19 06:03:06;;;;;;;9.30;6.70;;;;;;;14.85;100.00;101315.11;105607;1260;60450;-50
2023/09/19 06:05:34;;;;;;;12.20;6.90;;;;;;;14.96;100.00;101272.09;105588;1257;60511;-50
2023/09/19 06:08:07;;;;;;;10.60;6.00;;;;;;;15.09;100.00;101217.56;105557;1260;72189;-50
2023/09/19 06:10:35;;;;;;;6.80;6.00;;;;;;;15.25;100.00;101190.56;105599;1256;63106;-50
2023/09/19 06:13:06;;;;;;;12.70;6.80;;;;;;;15.37;100.00;101159.46;105598;1256;71417;-50
2023/09/19 06:15:36;;;;;;;11.10;6.50;;;;;;;15.52;100.00;101130.19;105610;1260;60450;-50
2023/09/19 06:18:04;;;;;;;7.20;6.40;;;;;;;15.64;100.00;101091.58;105599;1257;60364;-50
2023/09/19 06:20:33;;;;;;;8.40;7.00;;;;;;;15.73;100.00;101047.64;105631;1257;72545;-51
2023/09/19 06:23:02;;;;;;;7.20;5.90;;;;;;;15.85;100.00;101024.33;105571;1256;63241;-50
2023/09/19 06:25:29;;;;;;;12.10;6.10;;;;;;;15.98;100.00;101005.13;105569;1257;71405;-51
2023/09/19 06:27:57;;;;;;;11.00;5.50;;;;;;;16.11;100.00;100985.58;105566;1258;60456;-50
2023/09/19 06:30:25;;;;;;;9.00;6.50;;;;;;;16.24;100.00;100975.73;105624;1261;60533;-49
2023/09/19 06:32:57;;;;;;;11.30;6.00;;;;;;;16.34;100.00;100953.63;105607;1257;72549;-50
2023/09/19 06:35:26;;;;;;;10.40;6.00;;;;;;;16.43;100.00;100927.89;105627;1260;63169;-49
2023/09/19 06:37:54;;;;;;;7.90;5.60;;;;;;;16.55;100.00;100917.52;105614;1257;71371;-50
2023/09/19 06:40:22;;;;;;;11.80;6.30;;;;;;;16.67;100.00;100908.02;105627;1260;60443;-50
2023/09/19 06:42:53;;;;;;;10.30;5.80;;;;;;;16.80;100.00;100904.43;105587;1260;60562;-49
2023/09/19 06:45:21;;;;;;;11.30;5.80;;;;;;;16.93;100.00;100906.39;105529;1257;72570;-50
2023/09/19 06:47:50;;;;;;;8.90;5.90;;;;;;;17.04;100.00;100909.82;105591;1257;63130;-51
2023/09/19 06:50:22;;;;;;;11.10;5.50;;;;;;;17.19;100.00;100916.39;105666;1258;71377;-50
2023/09/19 06:52:51;;;;;;;14.40;6.20;;;;;;;17.34;100.00;100912.18;105591;1258;60533;-50
2023/09/19 06:55:20;;;;;;;12.90;5.40;;;;;;;17.48;100.00;100920.70;105643;1256;60345;-50
2023/09/19 06:57:48;;;;;;;8.90;5.60;;;;;;;17.61;100.00;100930.98;105673;1256;72579;-50
2023/09/19 07:00:18;;;;;;;9.70;5.10;;;;;;;17.78;100.00;100933.96;105628;1258;63218;-49
2023/09/19 07:02:55;;;;;;;7.40;5.10;;;;;;;17.97;100.00;100934.63;105623;1258;71334;-50
2023/09/19 07:05:23;;;;;;;9.50;5.50;;;;;;;18.13;100.00;100955.26;105597;1260;60533;-49
2023/09/19 07:07:51;;;;;;;10.10;5.60;;;;;;;18.27;100.00;100965.48;105632;1261;60528;-51
2023/09/19 07:10:20;;;;;;;9.10;5.90;;;;;;;18.43;100.00;100976.34;105594;1257;72621;-49
2023/09/19 07:12:48;;;;;;;7.70;5.60;;;;;;;18.62;100.00;100987.77;105584;1257;63121;-50
2023/09/19 07:15:15;;;;;;;8.20;5.60;;;;;;;18.81;100.00;101005.67;105521;1256;71384;-51
2023/09/19 07:17:43;;;;;;;5.50;4.90;;;;;;;18.98;100.00;101008.59;105623;1256;60697;-50
2023/09/19 07:20:16;;;;;;;9.60;5.20;;;;;;;19.15;100.00;101013.61;105580;1260;60783;-50
2023/09/19 07:22:44;;;;;;;6.60;5.40;;;;;;;19.34;100.00;101042.85;105632;1257;73085;-49
2023/09/19 07:25:13;;;;;;;6.00;4.80;;;;;;;19.54;100.00;101082.17;105595;1257;63287;-50
2023/09/19 07:27:41;;;;;;;10.20;4.90;;;;;;;19.74;100.00;101113.13;105621;1258;70747;-50
2023/09/19 07:30:10;;;;;;;8.50;4.90;;;;;;;19.95;100.00;101136.02;105563;1257;60417;-50
2023/09/19 07:32:40;;;;;;;11.50;5.30;;;;;;;20.16;100.00;101161.13;105634;1257;60549;-49
2023/09/19 07:35:08;;;;;;;9.90;4.80;;;;;;;20.35;100.00;101190.55;105603;1257;73778;-49
2023/09/19 07:37:36;;;;;;;8.30;4.70;;;;;;;20.53;100.00;101215.63;105610;1257;63669;-52
2023/09/19 07:40:11;;;;;;;8.40;5.00;;;;;;;20.71;100.00;101224.19;105569;1257;72604;-50
2023/09/19 07:42:40;;;;;;;10.40;5.30;;;;;;;20.92;100.00;101229.52;105560;1260;62035;-49
2023/09/19 07:45:09;;;;;;;5.60;4.90;;;;;;;21.11;100.00;101235.41;105667;1260;60373;-50
2023/09/19 07:47:37;;;;;;;6.70;4.80;;;;;;;21.28;100.00;101253.34;105637;1257;73894;-52
2023/09/19 07:50:07;;;;;;;5.70;5.00;;;;;;;21.46;100.00;101268.77;105634;1256;63115;-50
2023/09/19 07:52:35;;;;;;;7.00;4.70;;;;;;;21.65;99.93;101272.52;105620;1260;73445;-51
2023/09/19 07:55:07;;;;;;;8.10;4.60;;;;;;;21.83;92.12;101270.73;105590;1257;60450;-51
2023/09/19 07:57:38;;;;;;;12.50;5.00;;;;;;;22.01;84.83;101267.38;105605;1260;60427;-51
2023/09/19 08:00:07;;;;;;;9.70;4.40;;;;;;;22.18;80.38;101254.85;105580;1256;72631;-51
2023/09/19 08:02:41;;;;;;;12.90;4.10;;;;;;;22.37;78.99;101268.89;105628;1258;64428;-50
2023/09/19 08:05:10;;;;;;;8.70;5.30;;;;;;;22.57;78.20;101276.61;105623;1257;71367;-50
2023/09/19 08:07:39;;;;;;;8.10;4.50;;;;;;;22.77;75.97;101254.23;105648;1257;60437;-53
2023/09/19 08:10:08;;;;;;;6.80;4.00;;;;;;;22.95;72.75;101224.89;105666;1257;60704;-51
2023/09/19 08:12:35;;;;;;;6.50;4.10;;;;;;;23.17;72.24;101236.61;105691;1257;72565;-50
2023/09/19 08:15:05;;;;;;;3.90;3.60;;;;;;;23.35;70.23;101204.20;105559;1260;64945;-53
2023/09/19 08:17:36;;;;;;;7.80;4.00;;;;;;;23.53;67.84;101162.43;105636;1257;73650;-50
2023/09/19 08:20:05;;;;;;;6.90;4.10;;;;;;;23.72;65.73;101134.13;105569;1259;60503;-51
2023/09/19 08:22:32;;;;;;;4.10;3.40;;;;;;;23.94;64.69;101118.48;105649;1260;60460;-52
2023/09/19 08:25:01;;;;;;;6.90;3.50;;;;;;;24.15;61.90;101008.20;105578;1256;72581;-52
2023/09/19 08:27:30;;;;;;;4.20;3.60;;;;;;;24.30;60.43;100965.27;105621;1260;63384;-52
2023/09/19 08:29:58;;;;;;;4.40;3.30;;;;;;;24.48;59.51;100946.27;105622;1260;70696;-52
2023/09/19 08:32:27;;;;;;;4.10;3.70;;;;;;;24.68;58.55;100904.29;105586;1262;61121;-50
2023/09/19 08:34:55;;;;;;;9.60;3.80;;;;;;;24.89;57.00;100806.65;105610;1260;60430;-51
2023/09/19 08:37:23;;;;;;;5.70;3.30;;;;;;;25.05;55.58;100717.55;105429;1260;74171;-51
2023/09/19 08:39:51;;;;;;;3.60;3.30;;;;;;;25.20;53.80;100564.42;105567;1257;63859;-50
2023/09/19 08:42:21;;;;;;;9.80;3.60;;;;;;;25.36;53.30;100545.52;105641;1258;71395;-50
2023/09/19 08:44:48;;;;;;;7.60;3.40;;;;;;;25.54;52.13;100454.19;105568;1263;60456;-51
2023/09/19 08:47:17;;;;;;;9.20;3.50;;;;;;;25.68;50.34;100259.94;105620;1257;60319;-52
2023/09/19 08:50:13;;;;;;;5.80;3.60;;;;;;;25.82;50.21;100242.86;105500;1257;72745;-50
2023/09/19 08:52:42;;;;;;;3.60;3.20;;;;;;;26.03;49.07;100152.85;105624;1257;65928;-51
2023/09/19 08:55:12;;;;;;;8.00;3.80;;;;;;;26.21;49.19;100181.15;105602;1257;72543;-51
2023/09/19 08:57:41;;;;;;;4.30;3.50;;;;;;;26.42;49.12;100208.88;105627;1257;60511;-51
2023/09/19 09:00:11;;;;;;;7.20;3.70;;;;;;;26.57;48.64;100140.36;105595;1263;60408;-51
2023/09/19 09:02:42;;;;;;;6.10;4.00;;;;;;;26.69;46.96;99987.09;105609;1261;73828;-51
2023/09/19 09:05:10;;;;;;;8.60;3.90;;;;;;;26.76;46.36;99905.54;105538;1257;64525;-51
2023/09/19 09:07:38;;;;;;;4.70;3.30;;;;;;;26.85;45.56;99808.64;105623;1260;71416;-52
2023/09/19 09:10:07;;;;;;;6.00;3.60;;;;;;;26.98;45.82;99833.64;105579;1256;60665;-51
2023/09/19 09:12:36;;;;;;;5.90;3.10;;;;;;;27.07;46.00;99876.79;105605;1258;60453;-51
2023/09/19 09:15:04;;;;;;;4.80;3.50;;;;;;;27.24;45.55;99846.48;105647;1256;74429;-51
2023/09/19 09:17:33;;;;;;;8.10;3.30;;;;;;;27.35;44.91;99741.11;105538;1259;64703;-51
2023/09/19 09:20:01;;;;;;;3.70;3.40;;;;;;;27.47;45.03;99742.56;105580;1257;72905;-52
2023/09/19 09:22:28;;;;;;;3.90;3.60;;;;;;;27.59;44.27;99684.49;105600;1260;60907;-52
2023/09/19 09:25:04;;;;;;;6.90;3.60;;;;;;;27.64;44.86;99742.61;105660;1257;60520;-51
2023/09/19 09:27:34;;;;;;;5.70;3.40;;;;;;;27.77;45.37;99846.03;105639;1261;72795;-52
2023/09/19 09:30:01;;;;;;;6.50;3.40;;;;;;;27.90;43.83;99659.52;105649;1260;64450;-51
2023/09/19 09:32:33;;;;;;;5.30;3.10;;;;;;;27.97;43.74;99658.94;105650;1258;73395;-52
2023/09/19 09:35:01;;;;;;;3.80;3.50;;;;;;;28.02;42.43;99460.63;105615;1261;60453;-52
2023/09/19 09:37:32;;;;;;;4.20;3.30;;;;;;;28.07;43.21;99548.38;105659;1257;60620;-51
2023/09/19 09:42:46;;;;;;;4.30;3.30;;;;;;;28.22;43.05;99552.45;105597;1260;66476;-53
2023/09/19 09:45:16;;;;;;;3.90;3.40;;;;;;;28.36;43.00;99564.66;105639;1256;71948;-51
2023/09/19 09:47:54;;;;;;;10.60;3.60;;;;;;;28.55;43.59;99646.35;105634;1259;60488;-53
2023/09/19 09:53:21;;;;;;;4.80;3.40;;;;;;;28.79;40.80;99284.27;105574;1257;73746;-54
2023/09/19 09:56:02;;;;;;;4.60;2.60;;;;;;;28.83;40.83;99266.95;105636;1260;64742;-53
2023/09/19 09:58:31;;;;;;;7.80;3.10;;;;;;;28.87;40.95;99289.54;105634;1257;72847;-51
2023/09/19 10:01:02;;;;;;;4.60;3.10;;;;;;;28.92;40.06;99152.08;105598;1256;61030;-55
2023/09/19 10:03:43;;;;;;;3.50;3.20;;;;;;;28.93;40.22;99175.61;105601;1257;60539;-53
2023/09/19 10:06:25;;;;;;;4.10;3.30;;;;;;;28.98;40.79;99265.63;105658;1261;74292;-52
2023/09/19 10:09:16;;;;;;;5.80;3.10;;;;;;;29.03;40.69;99257.95;105621;1257;63124;-53
2023/09/19 10:11:45;;;;;;;4.10;3.20;;;;;;;29.01;41.02;99316.80;105587;1256;73019;-52
2023/09/19 10:14:15;;;;;;;11.80;3.60;;;;;;;29.09;39.60;99144.33;105613;1261;60359;-53
2023/09/19 10:16:46;;;;;;;29.10;3.80;;;;;;;29.02;38.53;98964.42;105644;1260;60363;-55
2023/09/19 10:19:26;;;;;;;13.10;3.80;;;;;;;28.84;37.94;98847.87;105624;1257;74386;-53
2023/09/19 10:21:56;;;;;;;16.40;3.70;;;;;;;28.80;38.72;98931.19;105605;1256;63137;-52
2023/09/19 10:24:26;;;;;;;27.40;4.20;;;;;;;28.80;38.33;98885.41;105617;1261;71746;-54
2023/09/19 10:26:54;;;;;;;6.80;3.30;;;;;;;28.83;39.12;98995.04;105517;1262;61362;-54
2023/09/19 10:29:22;;;;;;;3.90;3.20;;;;;;;28.91;39.07;99041.97;105652;1260;60537;-52
2023/09/19 10:31:50;;;;;;;6.70;3.80;;;;;;;28.94;39.57;99096.34;105620;1257;74539;-53
2023/09/19 10:34:19;;;;;;;6.30;3.60;;;;;;;29.02;39.93;99138.24;105295;1256;63110;-54
2023/09/19 10:36:46;;;;;;;7.60;3.70;;;;;;;29.07;38.19;98943.80;109152;1256;72220;-52
2023/09/19 10:42:20;;;;;;;;;;;;;;;29.26;39.39;99073.77;102838;1290;599530;-52
2023/09/19 10:44:53;;;;;;;33.30;5.50;;;;;;;29.22;38.85;99057.33;105190;1264;59388;-52
2023/09/19 10:47:24;;;;;;;8.30;3.80;;;;;;;29.21;38.12;98904.36;105183;1268;59262;-50
2023/09/19 10:49:53;;;;;;;11.20;3.20;;;;;;;29.21;38.94;98984.33;105244;1269;72533;-52
2023/09/19 10:52:24;;;;;;;3.90;3.60;;;;;;;29.24;39.79;99123.98;105186;1263;63111;-51
2023/09/19 10:54:57;;;;;;;10.60;3.70;;;;;;;29.35;38.92;99065.23;105004;1264;264999;-52
2023/09/19 10:57:27;;;;;;;4.40;3.80;;;;;;;29.37;37.89;98896.34;105255;1266;60015;-51
2023/09/19 11:00:23;;;;;;;8.30;3.50;;;;;;;29.31;38.05;98884.45;105260;1261;60803;-52
2023/09/19 11:03:19;;;;;;;4.40;3.70;;;;;;;29.22;38.25;98904.31;105276;1266;70259;-52
2023/09/19 11:06:20;;;;;;;;;;;;;;;29.10;37.50;98839.33;105308;1261;63240;-51
2023/09/19 11:11:50;;;;;;;5.50;3.80;;;;;;;29.04;38.52;98956.33;105232;1264;59742;-51
2023/09/19 11:14:24;;;;;;;3.80;3.50;;;;;;;29.03;38.60;98988.77;105714;1260;59696;-52
2023/09/19 11:17:11;;;;;;;16.60;4.10;;;;;;;29.10;39.34;99071.21;105680;1254;73432;-51
2023/09/19 11:22:50;;;;;;;4.60;3.30;;;;;;;29.23;38.62;99002.18;105573;1256;73301;-51
2023/09/19 11:25:31;;;;;;;4.00;3.60;;;;;;;29.29;38.73;99021.23;105690;1260;60327;-51
2023/09/19 11:28:06;;;;;;;7.90;3.50;;;;;;;29.36;38.79;99028.61;105662;1259;59789;-51
2023/09/19 11:30:36;;;;;;;5.70;3.50;;;;;;;29.48;38.33;98978.98;105719;1254;72758;-54
2023/09/19 11:33:21;;;;;;;5.60;3.70;;;;;;;29.47;38.51;98969.58;105686;1254;64072;-52
2023/09/19 11:36:09;;;;;;;3.80;3.50;;;;;;;29.50;39.30;99085.55;105579;1255;72684;-52
2023/09/19 11:38:50;;;;;;;6.90;3.80;;;;;;;29.58;38.14;98961.51;105639;1257;59848;-52
2023/09/19 11:41:29;;;;;;;5.20;3.50;;;;;;;29.53;37.35;98853.26;105559;1257;60156;-51